createdAt,value
2018-09-13T00:01:09.974Z,14.20
2018-09-13T00:03:38.073Z,13.20
2018-09-13T00:06:06.416Z,14.60
2018-09-13T00:08:34.473Z,13.70
2018-09-13T00:11:02.497Z,12.90
2018-09-13T00:13:30.538Z,13.63
2018-09-13T00:15:58.600Z,12.47
2018-09-13T00:18:26.620Z,13.43
2018-09-13T00:20:54.693Z,10.17
2018-09-13T00:23:22.728Z,10.63
2018-09-13T00:25:50.769Z,11.13
2018-09-13T00:28:18.820Z,9.50
2018-09-13T00:30:46.867Z,6.57
2018-09-13T00:33:14.928Z,9.40
2018-09-13T00:35:42.960Z,9.57
2018-09-13T00:38:11.004Z,10.00
2018-09-13T00:40:39.057Z,9.03
2018-09-13T00:43:07.080Z,8.47
2018-09-13T00:45:35.147Z,9.60
2018-09-13T00:48:03.260Z,8.30
2018-09-13T00:50:31.422Z,6.07
2018-09-13T00:52:59.411Z,8.20
2018-09-13T00:55:27.428Z,10.63
2018-09-13T00:57:55.452Z,7.77
2018-09-13T01:00:23.459Z,8.83
2018-09-13T01:02:51.492Z,8.73
2018-09-13T01:05:19.532Z,5.57
2018-09-13T01:07:47.565Z,6.73
2018-09-13T01:10:15.585Z,8.30
2018-09-13T01:12:43.717Z,9.87
2018-09-13T01:15:11.801Z,8.13
2018-09-13T01:17:39.816Z,10.00
2018-09-13T01:20:07.875Z,7.50
2018-09-13T01:22:35.895Z,8.80
2018-09-13T01:25:04.288Z,9.33
2018-09-13T01:27:32.361Z,11.93
2018-09-13T01:30:00.449Z,8.27
2018-09-13T01:32:28.474Z,9.00
2018-09-13T01:34:56.523Z,6.43
2018-09-13T01:37:24.568Z,8.33
2018-09-13T01:39:59.389Z,8.83
2018-09-13T01:42:27.473Z,10.03
2018-09-13T01:44:55.582Z,9.53
2018-09-13T01:47:23.569Z,7.10
2018-09-13T01:49:51.637Z,9.37
2018-09-13T01:52:19.698Z,9.30
2018-09-13T01:54:47.750Z,8.90
2018-09-13T01:57:15.781Z,8.47
2018-09-13T01:59:43.818Z,9.80
2018-09-13T02:02:11.862Z,10.60
2018-09-13T02:04:46.542Z,11.50
2018-09-13T02:07:14.558Z,9.37
2018-09-13T02:09:42.575Z,8.73
2018-09-13T02:12:10.609Z,11.47
2018-09-13T02:14:38.676Z,10.80
2018-09-13T02:17:06.692Z,11.40
2018-09-13T02:19:34.719Z,11.80
2018-09-13T02:22:02.809Z,10.47
2018-09-13T02:24:30.838Z,10.70
2018-09-13T02:26:58.903Z,11.37
2018-09-13T02:29:26.991Z,12.63
2018-09-13T02:31:55.012Z,11.23
2018-09-13T02:34:23.115Z,17.40
2018-09-13T02:36:51.268Z,16.23
2018-09-13T02:39:19.295Z,12.23
2018-09-13T02:41:47.345Z,12.57
2018-09-13T02:44:15.396Z,10.83
2018-09-13T02:46:43.471Z,13.03
2018-09-13T02:49:11.532Z,14.83
2018-09-13T02:51:39.588Z,15.10
2018-09-13T02:54:07.640Z,15.13
2018-09-13T02:56:35.705Z,13.67
2018-09-13T02:59:03.761Z,15.37
2018-09-13T03:01:31.802Z,14.50
2018-09-13T03:03:59.838Z,15.97
2018-09-13T03:06:27.862Z,7.83
2018-09-13T03:08:55.912Z,14.10
2018-09-13T03:11:24.050Z,12.77
2018-09-13T03:13:52.056Z,12.67
2018-09-13T03:16:20.154Z,14.90
2018-09-13T03:18:48.165Z,11.40
2018-09-13T03:21:16.216Z,12.97
2018-09-13T03:23:44.232Z,7.33
2018-09-13T03:26:12.236Z,12.80
2018-09-13T03:28:40.256Z,12.00
2018-09-13T03:31:08.405Z,9.00
2018-09-13T03:33:36.482Z,12.80
2018-09-13T03:36:04.525Z,12.60
2018-09-13T03:38:32.561Z,14.27
2018-09-13T03:41:00.564Z,13.27
2018-09-13T03:43:28.613Z,12.83
2018-09-13T03:45:56.634Z,14.13
2018-09-13T03:48:24.674Z,12.30
2018-09-13T03:50:52.756Z,13.50
2018-09-13T03:53:20.837Z,14.03
2018-09-13T03:55:48.907Z,8.07
2018-09-13T03:58:16.870Z,12.47
2018-09-13T04:00:44.945Z,13.07
2018-09-13T04:03:13.028Z,12.17
2018-09-13T04:05:41.044Z,14.27
2018-09-13T04:08:09.149Z,12.47
2018-09-13T04:10:37.169Z,13.57
2018-09-13T04:13:05.305Z,10.47
2018-09-13T04:15:33.468Z,8.97
2018-09-13T04:18:01.562Z,8.53
2018-09-13T04:20:29.569Z,12.20
2018-09-13T04:22:57.611Z,13.07
2018-09-13T04:25:25.656Z,10.77
2018-09-13T04:27:53.720Z,9.93
2018-09-13T04:30:21.893Z,10.07
2018-09-13T04:32:49.972Z,7.27
2018-09-13T04:35:18.008Z,13.03
2018-09-13T04:37:46.073Z,7.60
2018-09-13T04:40:14.127Z,13.60
2018-09-13T04:42:42.188Z,16.03
2018-09-13T04:45:10.264Z,10.13
2018-09-13T04:47:38.276Z,13.37
2018-09-13T04:50:06.394Z,14.23
2018-09-13T04:52:34.407Z,15.53
2018-09-13T04:55:02.513Z,13.47
2018-09-13T04:57:30.534Z,10.47
2018-09-13T04:59:58.536Z,17.37
2018-09-13T05:02:26.612Z,20.10
2018-09-13T05:04:54.664Z,21.53
2018-09-13T05:07:22.671Z,20.93
2018-09-13T05:09:50.809Z,18.33
2018-09-13T05:12:18.861Z,19.20
2018-09-13T05:14:46.887Z,17.83
2018-09-13T05:17:14.928Z,18.67
2018-09-13T05:19:42.957Z,20.50
2018-09-13T05:22:17.859Z,15.33
2018-09-13T05:24:45.885Z,16.13
2018-09-13T05:27:13.913Z,17.50
2018-09-13T05:29:41.928Z,15.50
2018-09-13T05:32:09.987Z,15.83
2018-09-13T05:34:38.003Z,17.33
2018-09-13T05:37:06.073Z,19.17
2018-09-13T05:39:34.207Z,15.53
2018-09-13T05:42:02.228Z,16.30
2018-09-13T05:44:30.319Z,13.97
2018-09-13T05:46:58.313Z,15.83
2018-09-13T05:49:26.321Z,18.33
2018-09-13T05:51:54.374Z,17.53
2018-09-13T05:54:22.592Z,14.67
2018-09-13T05:56:50.652Z,11.83
2018-09-13T05:59:18.782Z,16.77
2018-09-13T06:01:46.814Z,16.43
2018-09-13T06:04:14.870Z,17.10
2018-09-13T06:06:42.898Z,18.83
2018-09-13T06:09:10.974Z,15.93
2018-09-13T06:11:39.024Z,17.50
2018-09-13T06:14:07.140Z,17.17
2018-09-13T06:16:35.171Z,15.77
2018-09-13T06:19:03.285Z,12.97
2018-09-13T06:21:38.155Z,16.07
2018-09-13T06:24:06.191Z,17.30
2018-09-13T06:26:34.263Z,20.53
2018-09-13T06:29:02.342Z,21.10
2018-09-13T06:31:30.345Z,19.77
2018-09-13T06:33:58.384Z,17.10
2018-09-13T06:36:27.233Z,18.50
2018-09-13T06:38:55.244Z,16.63
2018-09-13T06:41:23.257Z,15.47
2018-09-13T06:43:51.383Z,16.67
2018-09-13T06:46:19.425Z,14.90
2018-09-13T06:48:47.477Z,15.70
2018-09-13T06:51:15.507Z,12.97
2018-09-13T06:53:43.552Z,17.20
2018-09-13T06:56:11.620Z,19.83
2018-09-13T06:58:39.774Z,14.17
2018-09-13T07:01:07.879Z,17.30
2018-09-13T07:03:35.956Z,18.50
2018-09-13T07:06:04.000Z,16.30
2018-09-13T07:08:32.238Z,19.87
2018-09-13T07:11:00.365Z,19.53
2018-09-13T07:13:28.540Z,19.10
2018-09-13T07:15:56.601Z,22.73
2018-09-13T07:18:24.764Z,22.07
2018-09-13T07:20:52.804Z,20.20
2018-09-13T07:23:20.858Z,24.47
2018-09-13T07:25:48.921Z,29.67
2018-09-13T07:28:16.975Z,26.03
2018-09-13T07:30:45.253Z,29.03
2018-09-13T07:33:13.689Z,26.43
2018-09-13T07:35:41.736Z,24.13
2018-09-13T07:38:09.795Z,26.80
2018-09-13T07:40:37.821Z,22.57
2018-09-13T07:43:05.868Z,24.37
2018-09-13T07:45:33.910Z,26.27
2018-09-13T07:48:01.936Z,22.53
2018-09-13T07:50:29.997Z,21.17
2018-09-13T07:52:58.033Z,23.37
2018-09-13T07:55:26.118Z,26.43
2018-09-13T07:57:54.205Z,28.50
2018-09-13T08:00:22.237Z,26.57
2018-09-13T08:02:50.273Z,26.23
2018-09-13T08:05:18.329Z,29.70
2018-09-13T08:07:46.411Z,30.77
2018-09-13T08:10:14.456Z,30.27
2018-09-13T08:12:42.479Z,30.10
2018-09-13T08:15:10.548Z,32.10
2018-09-13T08:17:38.617Z,29.57
2018-09-13T08:20:06.709Z,30.20
2018-09-13T08:22:34.773Z,25.77
2018-09-13T08:25:02.856Z,34.23
2018-09-13T08:27:30.936Z,29.73
2018-09-13T08:29:59.001Z,37.13
2018-09-13T08:32:27.090Z,38.20
2018-09-13T08:34:55.210Z,37.03
2018-09-13T08:37:23.162Z,32.10
2018-09-13T08:39:51.372Z,32.40
2018-09-13T08:42:19.435Z,29.57
2018-09-13T08:44:47.457Z,27.47
2018-09-13T08:47:15.613Z,25.87
2018-09-13T08:49:43.656Z,29.23
2018-09-13T08:52:11.764Z,27.63
2018-09-13T08:54:39.791Z,23.93
2018-09-13T08:57:07.863Z,22.37
2018-09-13T08:59:35.897Z,24.60
2018-09-13T09:02:03.964Z,26.23
2018-09-13T09:04:32.092Z,23.97
2018-09-13T09:07:00.154Z,23.97
2018-09-13T09:09:28.186Z,25.23
2018-09-13T09:11:56.258Z,24.83
2018-09-13T09:14:24.257Z,26.83
2018-09-13T09:16:52.332Z,25.60
2018-09-13T09:19:20.387Z,27.07
2018-09-13T09:21:48.465Z,27.93
2018-09-13T09:24:16.480Z,27.47
2018-09-13T09:26:44.558Z,26.57
2018-09-13T09:29:12.643Z,27.73
2018-09-13T09:31:45.456Z,24.13
2018-09-13T09:34:13.578Z,25.63
2018-09-13T09:36:41.605Z,30.13
2018-09-13T09:39:10.050Z,29.30
2018-09-13T09:41:38.088Z,26.30
2018-09-13T09:44:06.383Z,33.07
2018-09-13T09:46:34.432Z,34.87
2018-09-13T09:49:02.485Z,35.23
2018-09-13T09:51:30.512Z,32.50
2018-09-13T09:53:58.549Z,33.77
2018-09-13T09:56:26.619Z,30.77
2018-09-13T09:58:54.641Z,32.77
2018-09-13T10:01:22.665Z,33.73
2018-09-13T10:03:50.708Z,34.37
2018-09-13T10:06:18.716Z,25.10
2018-09-13T10:08:46.944Z,21.30
2018-09-13T10:11:15.037Z,39.47
2018-09-13T10:13:43.116Z,41.30
2018-09-13T10:16:11.175Z,36.00
2018-09-13T10:18:39.181Z,23.33
2018-09-13T10:21:07.233Z,40.30
2018-09-13T10:23:35.367Z,38.50
2018-09-13T10:26:03.433Z,34.33
2018-09-13T10:28:31.537Z,32.80
2018-09-13T10:30:59.546Z,32.80
2018-09-13T10:33:27.635Z,34.37
2018-09-13T10:35:55.665Z,34.10
2018-09-13T10:38:23.680Z,31.80
2018-09-13T10:40:51.727Z,33.40
2018-09-13T10:43:19.846Z,33.97
2018-09-13T10:45:47.878Z,31.03
2018-09-13T10:48:16.033Z,37.10
2018-09-13T10:50:44.310Z,29.57
2018-09-13T10:53:12.475Z,33.03
2018-09-13T10:55:40.598Z,30.93
2018-09-13T10:58:08.908Z,31.53
2018-09-13T11:00:37.045Z,28.23
2018-09-13T11:03:05.386Z,23.90
2018-09-13T11:05:33.489Z,35.43
2018-09-13T11:08:01.544Z,30.77
2018-09-13T11:10:29.666Z,35.13
2018-09-13T11:12:57.816Z,29.20
2018-09-13T11:15:25.821Z,31.47
2018-09-13T11:17:53.975Z,27.83
2018-09-13T11:20:22.022Z,29.03
2018-09-13T11:22:50.171Z,30.00
2018-09-13T11:25:18.202Z,36.53
2018-09-13T11:27:46.323Z,32.40
2018-09-13T11:30:14.353Z,33.50
2018-09-13T11:32:42.421Z,27.73
2018-09-13T11:35:10.512Z,27.17
2018-09-13T11:37:38.641Z,25.13
2018-09-13T11:40:06.767Z,20.20
2018-09-13T11:42:34.805Z,21.80
2018-09-13T11:45:03.028Z,23.13
2018-09-13T11:47:31.072Z,22.10
2018-09-13T11:49:59.124Z,20.17
2018-09-13T11:52:27.364Z,22.40
2018-09-13T11:54:55.541Z,20.03
2018-09-13T11:57:23.537Z,17.97
2018-09-13T11:59:51.743Z,17.87
2018-09-13T12:02:19.908Z,17.10
2018-09-13T12:04:47.940Z,14.23
2018-09-13T12:07:16.015Z,13.40
2018-09-13T12:09:44.073Z,13.50
2018-09-13T12:12:12.115Z,13.17
2018-09-13T12:14:40.162Z,12.90
2018-09-13T12:17:08.322Z,11.37
2018-09-13T12:19:36.468Z,12.30
2018-09-13T12:22:04.673Z,11.47
2018-09-13T12:24:32.830Z,10.53
2018-09-13T12:27:00.892Z,12.37
2018-09-13T12:29:28.985Z,13.70
2018-09-13T12:31:57.040Z,10.67
2018-09-13T12:34:25.081Z,9.00
2018-09-13T12:36:53.113Z,8.90
2018-09-13T12:39:21.227Z,10.47
2018-09-13T12:41:49.264Z,10.43
2018-09-13T12:44:17.292Z,9.37
2018-09-13T12:46:45.349Z,8.40
2018-09-13T12:49:13.526Z,7.77
2018-09-13T12:51:41.648Z,8.73
2018-09-13T12:54:09.628Z,8.23
2018-09-13T12:56:37.722Z,9.03
2018-09-13T12:59:06.102Z,8.53
2018-09-13T13:01:34.169Z,8.70
2018-09-13T13:04:02.345Z,11.80
2018-09-13T13:06:30.471Z,12.03
2018-09-13T13:08:58.599Z,12.57
2018-09-13T13:11:26.684Z,12.83
2018-09-13T13:13:54.881Z,13.00
2018-09-13T13:16:23.088Z,10.23
2018-09-13T13:18:51.157Z,10.13
2018-09-13T13:21:19.325Z,9.03
2018-09-13T13:23:47.399Z,7.23
2018-09-13T13:26:15.442Z,5.97
2018-09-13T13:28:43.540Z,5.60
2018-09-13T13:31:11.585Z,6.93
2018-09-13T13:33:39.679Z,6.47
2018-09-13T13:36:07.750Z,6.47
2018-09-13T13:38:35.786Z,6.13
2018-09-13T13:41:03.848Z,5.30
2018-09-13T13:43:32.100Z,6.47
2018-09-13T13:46:00.174Z,8.20
2018-09-13T13:48:28.260Z,6.43
2018-09-13T13:50:56.288Z,6.13
2018-09-13T13:53:24.360Z,4.80
2018-09-13T13:55:52.515Z,3.57
2018-09-13T13:58:20.589Z,3.63
2018-09-13T14:00:48.813Z,3.60
2018-09-13T14:03:16.874Z,4.33
2018-09-13T14:05:44.901Z,3.70
2018-09-13T14:08:12.953Z,3.80
2018-09-13T14:10:40.973Z,4.57
2018-09-13T14:13:09.068Z,4.87
2018-09-13T14:15:37.098Z,4.60
2018-09-13T14:18:05.814Z,4.53
2018-09-13T14:20:33.992Z,4.70
2018-09-13T14:23:01.976Z,4.53
2018-09-13T14:25:29.979Z,4.00
2018-09-13T14:27:59.624Z,4.50
2018-09-13T14:30:27.787Z,5.07
2018-09-13T14:32:55.828Z,4.77
2018-09-13T14:35:23.918Z,3.90
2018-09-13T14:37:53.113Z,3.90
2018-09-13T14:40:21.172Z,4.00
2018-09-13T14:42:49.231Z,4.40
2018-09-13T14:45:17.387Z,4.20
2018-09-13T14:47:45.405Z,3.83
2018-09-13T14:50:13.426Z,4.00
2018-09-13T14:52:41.501Z,3.93
2018-09-13T14:55:09.578Z,3.27
2018-09-13T14:57:37.632Z,2.77
2018-09-13T15:00:06.327Z,3.40
2018-09-13T15:02:34.493Z,3.00
2018-09-13T15:05:02.730Z,2.60
2018-09-13T15:07:30.767Z,2.77
2018-09-13T15:09:58.810Z,3.33
2018-09-13T15:12:26.944Z,3.07
2018-09-13T15:14:54.998Z,2.73
2018-09-13T15:17:23.018Z,3.17
2018-09-13T15:19:51.119Z,2.80
2018-09-13T15:22:19.240Z,3.07
2018-09-13T15:24:47.310Z,3.53
2018-09-13T15:27:15.329Z,3.23
2018-09-13T15:29:43.456Z,2.90
2018-09-13T15:32:11.541Z,3.00
2018-09-13T15:34:39.621Z,2.73
2018-09-13T15:37:07.828Z,2.60
2018-09-13T15:39:35.808Z,2.50
2018-09-13T15:42:03.875Z,1.70
2018-09-13T15:44:32.030Z,2.17
2018-09-13T15:47:00.229Z,2.37
2018-09-13T15:49:28.271Z,2.67
2018-09-13T15:51:56.364Z,2.30
2018-09-13T15:54:24.475Z,2.30
2018-09-13T15:56:52.584Z,2.30
2018-09-13T15:59:20.724Z,2.27
2018-09-13T16:01:48.744Z,3.30
2018-09-13T16:04:16.791Z,2.37
2018-09-13T16:06:44.897Z,2.33
2018-09-13T16:09:12.904Z,3.43
2018-09-13T16:11:40.980Z,2.43
2018-09-13T16:14:09.207Z,2.53
2018-09-13T16:16:37.261Z,2.00
2018-09-13T16:19:05.338Z,1.93
2018-09-13T16:21:34.421Z,2.30
2018-09-13T16:24:02.486Z,2.60
2018-09-13T16:26:30.722Z,3.07
2018-09-13T16:28:58.825Z,1.83
2018-09-13T16:31:26.938Z,2.43
2018-09-13T16:33:55.042Z,2.50
2018-09-13T16:36:24.724Z,2.07
2018-09-13T16:38:52.856Z,2.27
2018-09-13T16:41:23.145Z,1.70
2018-09-13T16:43:51.393Z,2.20
2018-09-13T16:46:19.502Z,2.37
2018-09-13T16:48:47.880Z,2.47
2018-09-13T16:51:16.080Z,2.23
2018-09-13T16:53:44.664Z,5.60
2018-09-13T16:56:13.558Z,5.17
2018-09-13T16:58:42.857Z,4.47
2018-09-13T17:01:12.459Z,4.40
2018-09-13T17:03:41.764Z,4.10
2018-09-13T17:06:10.023Z,4.17
2018-09-13T17:08:38.124Z,3.83
2018-09-13T17:11:06.301Z,4.07
2018-09-13T17:13:34.387Z,3.23
2018-09-13T17:16:02.515Z,3.00
2018-09-13T17:18:30.716Z,3.40
2018-09-13T17:20:58.846Z,3.53
2018-09-13T17:23:27.014Z,4.70
2018-09-13T17:25:55.072Z,3.50
2018-09-13T17:28:23.133Z,4.07
2018-09-13T17:30:51.260Z,4.93
2018-09-13T17:33:19.308Z,4.63
2018-09-13T17:35:47.381Z,3.13
2018-09-13T17:38:15.539Z,2.17
2018-09-13T17:40:43.606Z,1.63
2018-09-13T17:43:11.758Z,1.87
2018-09-13T17:45:39.927Z,2.30
2018-09-13T17:48:08.054Z,1.40
2018-09-13T17:50:36.272Z,1.70
2018-09-13T17:53:04.391Z,2.03
2018-09-13T17:55:32.484Z,2.20
2018-09-13T17:58:01.476Z,4.30
2018-09-13T18:00:29.536Z,1.50
2018-09-13T18:02:57.615Z,2.80
2018-09-13T18:05:25.673Z,2.20
2018-09-13T18:07:53.705Z,2.30
2018-09-13T18:10:21.778Z,1.83
2018-09-13T18:12:49.809Z,2.37
2018-09-13T18:15:17.941Z,1.97
2018-09-13T18:17:46.130Z,2.30
2018-09-13T18:20:14.209Z,2.90
2018-09-13T18:22:42.253Z,2.70
2018-09-13T18:25:10.322Z,2.63
2018-09-13T18:27:38.501Z,3.13
2018-09-13T18:30:06.574Z,2.33
2018-09-13T18:32:34.648Z,3.20
2018-09-13T18:35:02.757Z,3.10
2018-09-13T18:37:30.877Z,4.77
2018-09-13T18:39:58.971Z,5.57
2018-09-13T18:42:27.027Z,4.03
2018-09-13T18:44:55.142Z,3.63
2018-09-13T18:47:23.286Z,4.63
2018-09-13T18:49:51.345Z,4.33
2018-09-13T18:52:20.377Z,3.90
2018-09-13T18:54:48.468Z,4.67
2018-09-13T18:57:16.550Z,5.47
2018-09-13T18:59:44.595Z,4.83
2018-09-13T19:02:12.649Z,3.97
2018-09-13T19:04:40.720Z,3.80
2018-09-13T19:07:08.831Z,3.73
2018-09-13T19:09:36.958Z,3.77
2018-09-13T19:12:11.706Z,3.00
2018-09-13T19:14:39.778Z,3.77
2018-09-13T19:17:07.900Z,4.20
2018-09-13T19:19:36.011Z,2.80
2018-09-13T19:22:04.072Z,2.57
2018-09-13T19:24:32.249Z,2.60
2018-09-13T19:27:00.358Z,2.97
2018-09-13T19:29:28.477Z,2.83
2018-09-13T19:31:56.584Z,3.50
2018-09-13T19:34:24.674Z,5.03
2018-09-13T19:36:53.277Z,4.20
2018-09-13T19:39:27.922Z,4.27
2018-09-13T19:41:56.004Z,3.90
2018-09-13T19:44:24.199Z,4.30
2018-09-13T19:46:52.383Z,5.17
2018-09-13T19:49:20.402Z,4.07
2018-09-13T19:51:48.447Z,3.50
2018-09-13T19:54:16.523Z,3.87
2018-09-13T19:56:44.625Z,4.10
2018-09-13T19:59:12.694Z,3.77
2018-09-13T20:01:41.147Z,3.83
2018-09-13T20:04:09.175Z,4.10
2018-09-13T20:06:37.252Z,4.13
2018-09-13T20:09:07.973Z,4.40
2018-09-13T20:11:36.207Z,5.20
2018-09-13T20:14:04.291Z,3.77
2018-09-13T20:16:32.427Z,4.03
2018-09-13T20:19:00.562Z,4.17
2018-09-13T20:21:28.854Z,3.37
2018-09-13T20:23:56.905Z,4.30
2018-09-13T20:26:25.654Z,3.73
2018-09-13T20:28:53.922Z,5.07
2018-09-13T20:31:22.039Z,4.70
2018-09-13T20:33:50.487Z,3.67
2018-09-13T20:36:18.551Z,4.30
2018-09-13T20:38:46.648Z,4.30
2018-09-13T20:41:14.773Z,3.90
2018-09-13T20:43:42.829Z,3.93
2018-09-13T20:46:10.890Z,4.07
2018-09-13T20:48:38.946Z,4.87
2018-09-13T20:51:07.023Z,4.13
2018-09-13T20:53:35.093Z,4.20
2018-09-13T20:56:03.182Z,4.10
2018-09-13T20:58:31.376Z,4.30
2018-09-13T21:00:59.488Z,4.27
2018-09-13T21:03:27.524Z,4.37
2018-09-13T21:05:55.635Z,3.60
2018-09-13T21:08:23.662Z,3.40
2018-09-13T21:10:51.759Z,3.47
2018-09-13T21:13:19.947Z,3.23
2018-09-13T21:15:48.090Z,3.20
2018-09-13T21:18:16.117Z,3.47
2018-09-13T21:20:44.186Z,3.80
2018-09-13T21:23:12.240Z,3.20
2018-09-13T21:25:40.310Z,3.53
2018-09-13T21:30:42.842Z,3.20
2018-09-13T21:33:10.882Z,3.33
2018-09-13T21:35:38.909Z,3.03
2018-09-13T21:38:06.971Z,3.03
2018-09-13T21:40:35.121Z,3.40
2018-09-13T21:43:03.177Z,4.67
2018-09-13T21:45:31.212Z,2.93
2018-09-13T21:47:59.442Z,3.30
2018-09-13T21:50:27.623Z,2.90
2018-09-13T21:52:55.731Z,2.80
2018-09-13T21:55:23.816Z,3.00
2018-09-13T21:57:51.860Z,2.93
2018-09-13T22:00:19.976Z,2.60
2018-09-13T22:02:48.007Z,2.97
2018-09-13T22:05:16.098Z,2.67
2018-09-13T22:07:44.446Z,2.30
2018-09-13T22:10:12.636Z,3.07
2018-09-13T22:12:40.702Z,2.50
2018-09-13T22:15:10.827Z,2.80
2018-09-13T22:17:38.922Z,2.80
2018-09-13T22:20:06.984Z,2.60
2018-09-13T22:22:41.785Z,3.17
2018-09-13T22:25:09.828Z,3.00
2018-09-13T22:27:37.904Z,3.53
2018-09-13T22:30:06.162Z,3.03
2018-09-13T22:32:34.213Z,3.20
2018-09-13T22:35:02.246Z,3.23
2018-09-13T22:37:30.260Z,2.93
2018-09-13T22:39:58.352Z,3.00
2018-09-13T22:42:26.345Z,3.00
2018-09-13T22:44:54.477Z,3.37
2018-09-13T22:47:22.463Z,2.90
2018-09-13T22:49:50.606Z,2.57
2018-09-13T22:52:18.662Z,3.30
2018-09-13T22:54:46.698Z,3.47
2018-09-13T22:57:14.749Z,2.80
2018-09-13T22:59:42.874Z,2.70
2018-09-13T23:02:10.902Z,2.70
2018-09-13T23:04:38.989Z,2.97
2018-09-13T23:07:07.294Z,2.73
2018-09-13T23:09:35.616Z,3.20
2018-09-13T23:12:03.693Z,2.70
2018-09-13T23:14:31.812Z,2.23
2018-09-13T23:16:59.852Z,3.23
2018-09-13T23:19:27.910Z,3.00
2018-09-13T23:21:55.933Z,3.03
2018-09-13T23:24:23.944Z,2.40
2018-09-13T23:26:52.033Z,2.77
2018-09-13T23:29:20.049Z,2.13
2018-09-13T23:31:48.074Z,3.00
2018-09-13T23:34:16.057Z,3.07
2018-09-13T23:36:44.116Z,3.23
2018-09-13T23:39:12.262Z,2.87
2018-09-13T23:41:40.133Z,2.90
2018-09-13T23:44:08.177Z,3.20
2018-09-13T23:46:36.231Z,2.73
2018-09-13T23:49:04.297Z,2.83
2018-09-13T23:51:32.465Z,2.30
2018-09-13T23:54:00.488Z,2.87
2018-09-13T23:56:29.751Z,3.00
2018-09-13T23:58:57.772Z,3.13
